Time;durP1;ratioP1;P1;durP2;ratioP2;P2;SDS_P1;SDS_P2;PMS_P1;PMS_P2;Temp;Humidity;BMP_temperature;BMP_pressure;BME280_temperature;BME280_humidity;BME280_pressure;Samples;Min_cycle;Max_cycle;Signal;HPM_P1;HPM_P2
2023/10/04 00:00:21;;;;;;;2.73;2.47;;;11.90;94.00;;;;;;5036137;28;20831;-87
2023/10/04 00:02:51;;;;;;;4.10;2.57;;;12.60;50.30;;;;;;5026791;28;20422;-87
2023/10/04 00:05:19;;;;;;;5.15;2.78;;;13.70;46.40;;;;;;5041484;28;20393;-88
2023/10/04 00:07:46;;;;;;;2.50;2.30;;;11.40;71.60;;;;;;5026098;28;20391;-88
2023/10/04 00:10:13;;;;;;;3.63;2.60;;;13.40;63.70;;;;;;5023350;28;20387;-87
2023/10/04 00:12:39;;;;;;;2.95;2.35;;;11.30;42.20;;;;;;5023469;28;20750;-88
2023/10/04 00:15:14;;;;;;;3.50;2.42;;;10.90;56.30;;;;;;5025413;28;20389;-88
2023/10/04 00:17:42;;;;;;;3.53;2.30;;;12.10;38.00;;;;;;5040145;28;20391;-88
2023/10/04 00:20:16;;;;;;;4.35;2.70;;;12.00;40.60;;;;;;5042397;28;20387;-88
2023/10/04 00:22:43;;;;;;;3.40;2.60;;;12.30;39.70;;;;;;5021074;28;20906;-88
2023/10/04 00:25:11;;;;;;;4.25;2.75;;;11.70;48.50;;;;;;5026250;28;20401;-87
2023/10/04 00:27:40;;;;;;;2.40;2.20;;;11.50;31.40;;;;;;5024891;28;20486;-87
2023/10/04 00:30:14;;;;;;;6.28;2.80;;;11.80;24.80;;;;;;5022189;28;20489;-88
2023/10/04 00:32:40;;;;;;;2.60;2.40;;;12.00;26.40;;;;;;5035836;28;20387;-88
2023/10/04 00:35:12;;;;;;;2.85;2.40;;;11.90;54.00;;;;;;5014227;28;20395;-87
2023/10/04 00:37:39;;;;;;;3.35;3.03;;;12.20;71.00;;;;;;5013800;28;20395;-87
2023/10/04 00:40:18;;;;;;;3.83;2.75;;;11.50;52.00;;;;;;5026667;28;20820;-87
2023/10/04 00:42:49;;;;;;;3.92;2.72;;;12.20;54.80;;;;;;5044159;28;20405;-87
2023/10/04 00:45:15;;;;;;;3.10;2.80;;;12.10;27.60;;;;;;5061017;28;20373;-89
2023/10/04 00:47:48;;;;;;;2.88;2.50;;;12.20;35.80;;;;;;5044353;28;20413;-87
2023/10/04 00:50:15;;;;;;;3.53;2.70;;;11.70;31.30;;;;;;5033274;28;20516;-88
2023/10/04 00:52:49;;;;;;;4.50;2.50;;;12.10;56.60;;;;;;5032814;28;20396;-88
2023/10/04 00:55:19;;;;;;;3.00;2.60;;;11.80;36.10;;;;;;5049768;28;20779;-86
2023/10/04 00:57:49;;;;;;;4.05;3.00;;;11.70;23.00;;;;;;5013870;28;20395;-88
2023/10/04 01:00:17;;;;;;;2.97;2.58;;;11.90;21.80;;;;;;5013490;28;20866;-87
2023/10/04 01:02:43;;;;;;;6.30;3.03;;;12.40;39.40;;;;;;5047719;28;20424;-87
2023/10/04 01:05:11;;;;;;;2.80;2.50;;;11.80;21.00;;;;;;5033376;28;20809;-87
2023/10/04 01:07:41;;;;;;;3.10;2.40;;;11.80;14.10;;;;;;5033312;28;20437;-88
2023/10/04 01:10:14;;;;;;;3.10;2.80;;;11.60;7.00;;;;;;5033408;28;20385;-87
2023/10/04 01:12:40;;;;;;;3.33;2.80;;;12.20;17.50;;;;;;5026236;28;20855;-88
2023/10/04 01:15:25;;;;;;;3.80;2.80;;;13.50;11.00;;;;;;5013418;28;20894;-87
2023/10/04 01:17:53;;;;;;;4.00;2.70;;;12.10;12.30;;;;;;5013168;28;20477;-87
2023/10/04 01:20:27;;;;;;;3.75;2.83;;;11.70;20.80;;;;;;5043572;28;20453;-87
2023/10/04 01:23:02;;;;;;;3.85;3.20;;;12.10;11.40;;;;;;5050463;28;20408;-88
2023/10/04 01:25:33;;;;;;;3.60;2.53;;;11.50;19.80;;;;;;5016859;28;20387;-88
2023/10/04 01:28:00;;;;;;;3.13;2.83;;;12.50;9.80;;;;;;5013046;28;20474;-87
2023/10/04 01:30:26;;;;;;;2.83;2.35;;;11.60;4.90;;;;;;5014487;28;20881;-88
2023/10/04 01:32:53;;;;;;;3.38;3.08;;;11.50;8.50;;;;;;5012783;28;20514;-88
2023/10/04 01:35:27;;;;;;;3.30;2.47;;;11.50;8.00;;;;;;5013141;28;20399;-88
2023/10/04 01:37:53;;;;;;;3.90;3.00;;;11.40;10.60;;;;;;5030585;28;20444;-88
2023/10/04 01:40:22;;;;;;;3.60;3.30;;;11.60;29.60;;;;;;5012714;28;20422;-88
2023/10/04 01:42:48;;;;;;;3.28;2.70;;;12.10;14.00;;;;;;5030382;28;20410;-88
2023/10/04 01:45:17;;;;;;;3.00;2.70;;;13.90;6.50;;;;;;5013365;28;20447;-88
2023/10/04 01:47:43;;;;;;;4.50;2.60;;;11.30;9.50;;;;;;5050778;28;20477;-88
2023/10/04 01:50:10;;;;;;;4.45;2.90;;;10.90;6.70;;;;;;5034086;28;20443;-87
2023/10/04 01:52:38;;;;;;;4.05;2.92;;;11.50;3.60;;;;;;5032281;28;20865;-88
2023/10/04 01:55:10;;;;;;;4.40;2.72;;;11.50;9.20;;;;;;5032463;28;20394;-88
2023/10/04 01:57:38;;;;;;;4.05;2.85;;;12.10;8.60;;;;;;5032357;28;20393;-88
2023/10/04 02:00:04;;;;;;;3.27;2.90;;;13.30;13.20;;;;;;5032387;28;20470;-88
2023/10/04 02:02:31;;;;;;;3.83;3.20;;;12.10;6.50;;;;;;5024296;28;20496;-88
2023/10/04 02:04:56;;;;;;;3.05;2.42;;;11.90;10.80;;;;;;5014966;28;20411;-88
2023/10/04 02:07:22;;;;;;;3.10;2.50;;;11.70;1.00;;;;;;5016616;28;20490;-88
2023/10/04 02:09:48;;;;;;;3.40;3.07;;;11.60;4.90;;;;;;5016833;28;20397;-87
2023/10/04 02:12:16;;;;;;;3.80;2.77;;;12.00;9.60;;;;;;5034233;28;20419;-88
2023/10/04 02:14:41;;;;;;;3.38;2.85;;;12.60;42.00;;;;;;5016636;28;20410;-88
2023/10/04 02:17:08;;;;;;;3.00;2.70;;;12.10;19.70;;;;;;5016414;28;20748;-89
2023/10/04 02:19:34;;;;;;;4.05;2.53;;;14.10;17.50;;;;;;5041758;28;20838;-88
2023/10/04 02:22:00;;;;;;;3.85;2.60;;;11.70;7.30;;;;;;5035842;28;20484;-88
2023/10/04 02:24:26;;;;;;;4.53;3.10;;;14.10;7.90;;;;;;5054369;28;20389;-87
2023/10/04 02:26:52;;;;;;;2.92;2.70;;;12.50;12.50;;;;;;5052666;28;20413;-91
2023/10/04 02:29:18;;;;;;;3.50;2.60;;;12.40;16.70;;;;;;5041209;28;20408;-88
2023/10/04 02:31:44;;;;;;;4.28;2.70;;;12.50;11.10;;;;;;5053716;28;20380;-88
2023/10/04 02:34:11;;;;;;;2.70;2.50;;;12.40;7.00;;;;;;5036409;28;20967;-88
2023/10/04 02:36:37;;;;;;;3.20;2.50;;;11.70;8.40;;;;;;5035858;28;20429;-89
2023/10/04 02:39:10;;;;;;;3.97;2.60;;;11.70;2.40;;;;;;5035754;28;20400;-88
2023/10/04 02:41:36;;;;;;;3.20;2.50;;;11.70;1.00;;;;;;5035740;28;20394;-88
2023/10/04 02:44:02;;;;;;;3.00;2.20;;;11.70;1.00;;;;;;5053778;28;20605;-88
2023/10/04 02:46:28;;;;;;;3.65;2.47;;;12.20;1.00;;;;;;5054006;28;20464;-88
2023/10/04 02:48:54;;;;;;;3.10;2.70;;;11.90;1.00;;;;;;5035628;28;20379;-88
2023/10/04 02:51:20;;;;;;;2.65;2.45;;;11.60;1.00;;;;;;5053418;28;20382;-88
2023/10/04 02:53:46;;;;;;;2.75;2.47;;;11.10;1.00;;;;;;5039131;28;20395;-88
2023/10/04 02:56:12;;;;;;;4.60;3.00;;;11.90;5.10;;;;;;5033736;28;20387;-88
2023/10/04 02:58:37;;;;;;;2.90;2.60;;;13.60;3.00;;;;;;5017499;28;20490;-87
2023/10/04 03:01:03;;;;;;;4.53;2.90;;;11.40;1.70;;;;;;5017109;28;20399;-89
2023/10/04 03:03:30;;;;;;;3.53;2.95;;;11.70;7.20;;;;;;5015864;28;20476;-88
2023/10/04 03:05:56;;;;;;;4.10;3.17;;;12.20;14.10;;;;;;5015983;28;20414;-88
2023/10/04 03:08:27;;;;;;;5.00;3.00;;;12.20;3.20;;;;;;5033701;28;20387;-88
2023/10/04 03:10:55;;;;;;;4.93;3.20;;;11.60;1.00;;;;;;5023140;28;20395;-89
2023/10/04 03:13:27;;;;;;;3.55;2.53;;;13.20;1.00;;;;;;5030990;28;20462;-89
2023/10/04 03:15:53;;;;;;;3.88;3.00;;;11.20;1.00;;;;;;5052114;28;20458;-89
2023/10/04 03:18:20;;;;;;;4.40;2.80;;;12.20;3.00;;;;;;5025272;28;20449;-88
2023/10/04 03:21:16;;;;;;;2.80;2.60;;;11.50;6.80;;;;;;5033930;28;20401;-89
2023/10/04 03:23:35;;;;;;;3.70;2.83;;;11.20;1.00;;;;;;5033056;28;20973;-88
2023/10/04 03:26:04;;;;;;;2.80;2.42;;;11.30;1.00;;;;;;5021205;28;20415;-88
2023/10/04 03:28:33;;;;;;;3.20;2.55;;;10.90;1.00;;;;;;5056376;28;20388;-89
2023/10/04 03:31:01;;;;;;;3.60;2.80;;;11.70;1.00;;;;;;5039260;28;20398;-88
2023/10/04 03:33:27;;;;;;;5.60;3.00;;;11.30;1.00;;;;;;5018150;28;20418;-88
2023/10/04 03:35:53;;;;;;;4.50;3.03;;;11.60;1.20;;;;;;5032889;28;20389;-88
2023/10/04 03:38:20;;;;;;;3.40;2.70;;;11.90;1.00;;;;;;5036568;28;20392;-89
2023/10/04 03:40:45;;;;;;;5.80;2.60;;;10.90;1.00;;;;;;5036734;28;20818;-89
2023/10/04 03:43:12;;;;;;;3.20;2.90;;;11.70;1.00;;;;;;5036031;28;20484;-88
2023/10/04 03:45:39;;;;;;;3.30;2.60;;;10.80;1.00;;;;;;5036437;28;20885;-88
2023/10/04 03:48:10;;;;;;;3.10;2.80;;;11.30;1.00;;;;;;5035897;28;20385;-88
2023/10/04 03:50:37;;;;;;;3.00;2.70;;;11.70;1.00;;;;;;5035920;28;20601;-88
2023/10/04 03:53:02;;;;;;;3.40;2.80;;;11.10;1.00;;;;;;5046398;28;20397;-88
2023/10/04 03:55:28;;;;;;;3.20;2.57;;;11.60;1.00;;;;;;5041583;28;20961;-88
2023/10/04 03:57:54;;;;;;;3.23;2.63;;;13.60;1.00;;;;;;5036370;28;20437;-88
2023/10/04 04:00:22;;;;;;;4.80;2.92;;;10.90;1.00;;;;;;5053298;28;20381;-88
2023/10/04 04:02:49;;;;;;;2.88;2.58;;;10.80;1.00;;;;;;5035515;28;20478;-88
2023/10/04 04:05:15;;;;;;;4.70;3.00;;;11.50;1.00;;;;;;5035647;28;20892;-89
2023/10/04 04:07:41;;;;;;;3.95;2.50;;;11.50;1.00;;;;;;5052855;28;20382;-88
2023/10/04 04:10:08;;;;;;;3.60;2.80;;;10.80;1.00;;;;;;5035011;28;20402;-88
2023/10/04 04:12:35;;;;;;;4.53;3.08;;;11.60;19.40;;;;;;5035023;28;20901;-89
2023/10/04 04:15:08;;;;;;;3.28;2.70;;;11.20;3.70;;;;;;5035696;28;20397;-89
2023/10/04 04:17:35;;;;;;;3.92;2.88;;;11.50;1.00;;;;;;5035418;28;20417;-89
2023/10/04 04:20:03;;;;;;;2.70;2.50;;;10.70;1.00;;;;;;5035569;28;20806;-88
2023/10/04 04:22:28;;;;;;;4.40;2.90;;;11.40;1.00;;;;;;5035235;28;20401;-88
2023/10/04 04:24:54;;;;;;;4.10;3.10;;;13.20;1.00;;;;;;5047512;28;20458;-89
2023/10/04 04:27:22;;;;;;;3.67;2.97;;;13.90;6.20;;;;;;5040018;28;20393;-90
2023/10/04 04:29:56;;;;;;;4.50;2.85;;;10.60;8.50;;;;;;5055159;28;20487;-88
2023/10/04 04:32:28;;;;;;;4.35;2.70;;;11.50;1.00;;;;;;5023442;28;20411;-88
2023/10/04 04:34:54;;;;;;;4.35;2.60;;;11.30;1.00;;;;;;5037051;28;20387;-88
2023/10/04 04:37:20;;;;;;;3.33;3.03;;;11.40;1.00;;;;;;5035014;28;20393;-88
2023/10/04 04:39:46;;;;;;;3.63;2.80;;;11.40;1.00;;;;;;5044182;28;20389;-88
2023/10/04 04:42:12;;;;;;;3.50;2.80;;;11.50;1.00;;;;;;5040732;28;20473;-89
2023/10/04 04:44:44;;;;;;;3.10;2.80;;;11.30;1.00;;;;;;5030726;28;20397;-89
2023/10/04 04:47:10;;;;;;;3.10;2.80;;;11.20;1.00;;;;;;5020277;28;20378;-89
2023/10/04 04:49:37;;;;;;;3.00;2.63;;;11.10;1.00;;;;;;5052953;28;20447;-89
2023/10/04 04:52:05;;;;;;;4.13;3.00;;;11.10;1.00;;;;;;5034567;28;20397;-89
2023/10/04 04:54:32;;;;;;;2.90;2.70;;;12.90;1.00;;;;;;5018135;28;20395;-90
2023/10/04 04:56:59;;;;;;;3.20;2.90;;;13.10;1.00;;;;;;5049882;28;20385;-89
2023/10/04 04:59:24;;;;;;;2.50;2.30;;;10.70;5.40;;;;;;5030625;28;20770;-89
2023/10/04 05:01:52;;;;;;;4.10;2.90;;;10.80;1.00;;;;;;5031271;28;20383;-89
2023/10/04 05:04:18;;;;;;;3.92;3.20;;;10.90;11.50;;;;;;5026131;28;20771;-89
2023/10/04 05:06:44;;;;;;;3.78;3.30;;;10.40;1.00;;;;;;5034486;28;20385;-88
2023/10/04 05:09:10;;;;;;;6.00;3.35;;;11.20;1.00;;;;;;5058345;28;20387;-88
2023/10/04 05:11:37;;;;;;;3.80;3.40;;;10.40;1.90;;;;;;5028421;28;20386;-89
2023/10/04 05:14:05;;;;;;;4.90;3.42;;;10.20;2.80;;;;;;5039430;28;20901;-89
2023/10/04 05:16:31;;;;;;;5.38;3.25;;;10.70;1.00;;;;;;5019022;28;20963;-89
2023/10/04 05:18:56;;;;;;;3.20;2.90;;;11.10;1.00;;;;;;5016589;28;20452;-89
2023/10/04 05:21:22;;;;;;;3.72;2.80;;;14.00;1.00;;;;;;5022189;28;20397;-89
2023/10/04 05:23:47;;;;;;;3.50;2.75;;;9.80;1.00;;;;;;5049488;28;20405;-90
2023/10/04 05:26:13;;;;;;;3.00;2.70;;;10.60;2.40;;;;;;5023537;28;20398;-89
2023/10/04 05:28:39;;;;;;;3.57;2.97;;;10.60;1.00;;;;;;5038030;28;20904;-89
2023/10/04 05:31:05;;;;;;;3.20;2.90;;;10.50;1.00;;;;;;5027973;28;20472;-90
2023/10/04 05:33:35;;;;;;;4.13;2.70;;;10.50;1.00;;;;;;5037565;28;20390;-90
2023/10/04 05:36:01;;;;;;;3.22;2.50;;;10.90;1.00;;;;;;5033170;28;20472;-89
2023/10/04 05:38:28;;;;;;;4.07;3.20;;;9.50;1.00;;;;;;5029408;28;20399;-89
2023/10/04 05:41:00;;;;;;;4.45;2.70;;;11.80;1.00;;;;;;5035837;28;20438;-90
2023/10/04 05:43:25;;;;;;;3.15;2.70;;;9.60;1.00;;;;;;5039404;28;20409;-89
2023/10/04 05:45:51;;;;;;;4.40;2.80;;;11.00;1.00;;;;;;5033224;28;20481;-88
2023/10/04 05:48:20;;;;;;;3.30;3.00;;;11.00;1.00;;;;;;5029280;28;20390;-88
2023/10/04 05:50:49;;;;;;;4.60;2.70;;;11.60;1.00;;;;;;5019135;28;20387;-90
2023/10/04 05:53:19;;;;;;;4.60;2.60;;;10.10;1.00;;;;;;5052182;28;20544;-90
2023/10/04 05:55:45;;;;;;;3.67;2.90;;;9.80;1.00;;;;;;5040647;28;20531;-89
2023/10/04 05:58:11;;;;;;;4.55;3.30;;;10.20;1.00;;;;;;5038968;28;20433;-89
2023/10/04 06:00:42;;;;;;;3.17;2.88;;;10.90;1.00;;;;;;5037304;28;20893;-90
2023/10/04 06:03:11;;;;;;;3.60;3.10;;;10.10;1.00;;;;;;5028391;28;20419;-90
2023/10/04 06:05:38;;;;;;;3.70;2.90;;;10.00;1.00;;;;;;5017258;28;20391;-90
2023/10/04 06:08:06;;;;;;;2.78;2.50;;;9.80;1.00;;;;;;5022659;28;20398;-90
2023/10/04 06:10:32;;;;;;;3.03;2.60;;;10.80;1.00;;;;;;5036356;28;20381;-90
2023/10/04 06:12:59;;;;;;;3.10;2.75;;;12.70;1.00;;;;;;5037980;28;20485;-91
2023/10/04 06:15:24;;;;;;;3.88;3.05;;;9.30;1.00;;;;;;5038397;28;20396;-92
2023/10/04 06:17:52;;;;;;;4.15;3.13;;;10.00;1.00;;;;;;5035031;28;20395;-91
2023/10/04 06:20:38;;;;;;;3.90;2.80;;;12.20;1.00;;;;;;5014347;28;20402;-90
2023/10/04 06:23:05;;;;;;;4.70;3.20;;;10.20;1.00;;;;;;5019324;28;20413;-90
2023/10/04 06:25:38;;;;;;;5.63;2.90;;;10.10;1.00;;;;;;5034143;28;20417;-89
2023/10/04 06:28:04;;;;;;;3.00;2.80;;;10.50;1.00;;;;;;5051060;28;20590;-90
2023/10/04 06:30:34;;;;;;;3.15;2.85;;;10.80;1.00;;;;;;5033559;28;20448;-87
2023/10/04 06:33:01;;;;;;;3.97;2.80;;;11.00;1.00;;;;;;5029069;28;20399;-87
2023/10/04 06:35:28;;;;;;;3.60;2.92;;;10.50;1.00;;;;;;5014485;28;20391;-87
2023/10/04 06:37:56;;;;;;;3.53;3.17;;;10.30;1.00;;;;;;5014439;28;20395;-87
2023/10/04 06:40:23;;;;;;;4.32;3.00;;;11.00;1.00;;;;;;5029586;28;20834;-88
2023/10/04 06:42:53;;;;;;;4.90;3.20;;;10.70;1.00;;;;;;5052614;28;20405;-89
2023/10/04 06:45:20;;;;;;;4.65;3.15;;;10.80;1.00;;;;;;5039771;28;20385;-91
2023/10/04 06:47:49;;;;;;;3.20;2.90;;;10.70;1.00;;;;;;5052481;28;20431;-88
2023/10/04 06:50:18;;;;;;;2.70;2.50;;;12.60;1.00;;;;;;5034222;28;20481;-89
2023/10/04 06:52:47;;;;;;;4.32;3.28;;;10.90;1.00;;;;;;5038539;28;20389;-88
2023/10/04 06:55:13;;;;;;;3.40;3.00;;;10.80;1.00;;;;;;5056510;28;20393;-91
2023/10/04 06:57:39;;;;;;;2.90;2.60;;;10.90;1.00;;;;;;5057455;28;20393;-90
2023/10/04 07:00:13;;;;;;;4.15;3.10;;;11.10;1.00;;;;;;5058051;28;20417;-91
2023/10/04 07:02:51;;;;;;;3.90;3.00;;;11.60;1.00;;;;;;5060348;28;20397;-92
2023/10/04 07:05:20;;;;;;;4.72;3.17;;;11.50;1.00;;;;;;5050781;28;20437;-89
2023/10/04 07:07:53;;;;;;;4.07;3.20;;;11.70;1.00;;;;;;5043678;28;20381;-89
2023/10/04 07:10:20;;;;;;;3.55;2.90;;;11.20;1.00;;;;;;5038084;28;20393;-90
2023/10/04 07:12:52;;;;;;;4.07;3.17;;;11.90;1.00;;;;;;5029970;28;20403;-89
2023/10/04 07:15:19;;;;;;;3.67;2.80;;;11.50;1.00;;;;;;5016537;28;20875;-89
2023/10/04 07:17:47;;;;;;;3.00;2.70;;;11.60;1.00;;;;;;5016346;28;20624;-89
2023/10/04 07:20:15;;;;;;;3.45;2.53;;;11.70;1.00;;;;;;5028032;28;20393;-88
2023/10/04 07:22:51;;;;;;;3.15;2.60;;;11.80;1.00;;;;;;5030936;28;20422;-89
2023/10/04 07:25:17;;;;;;;4.00;2.65;;;12.10;1.00;;;;;;5030472;28;20418;-91
2023/10/04 07:27:44;;;;;;;3.00;2.50;;;11.70;1.00;;;;;;5075743;28;20416;-90
2023/10/04 07:30:13;;;;;;;4.50;2.60;;;11.80;1.00;;;;;;5057299;28;20419;-91
2023/10/04 07:32:43;;;;;;;3.45;2.92;;;12.10;1.00;;;;;;5054939;28;20449;-89
2023/10/04 07:35:23;;;;;;;3.42;2.67;;;12.40;1.00;;;;;;5054307;28;20402;-91
2023/10/04 07:37:49;;;;;;;2.45;2.25;;;12.90;1.00;;;;;;5060031;28;20381;-90
2023/10/04 07:40:16;;;;;;;3.60;2.50;;;15.20;1.00;;;;;;5051017;28;20436;-89
2023/10/04 07:42:47;;;;;;;3.15;2.30;;;11.70;1.00;;;;;;5058232;28;20416;-88
2023/10/04 07:45:14;;;;;;;4.50;2.70;;;12.60;1.00;;;;;;5059041;28;20416;-91
2023/10/04 07:47:41;;;;;;;3.00;2.42;;;15.00;1.00;;;;;;5027446;28;20387;-89
2023/10/04 07:50:13;;;;;;;2.60;2.35;;;12.70;1.00;;;;;;5033180;28;20400;-89
2023/10/04 07:52:40;;;;;;;2.78;2.30;;;12.60;1.00;;;;;;5035551;28;20473;-89
2023/10/04 07:55:14;;;;;;;5.45;3.00;;;12.60;1.00;;;;;;5035364;28;20425;-89
2023/10/04 07:57:42;;;;;;;3.58;2.70;;;12.80;1.00;;;;;;5035271;28;20456;-89
2023/10/04 08:00:14;;;;;;;3.80;2.80;;;12.00;1.00;;;;;;5017944;28;20399;-89
2023/10/04 08:02:46;;;;;;;3.70;2.40;;;12.90;1.00;;;;;;5015861;28;20482;-90
2023/10/04 08:05:13;;;;;;;3.17;2.30;;;12.60;1.00;;;;;;5033803;28;20375;-89
2023/10/04 08:07:38;;;;;;;4.32;3.10;;;14.60;1.00;;;;;;5037066;28;20395;-90
2023/10/04 08:10:05;;;;;;;3.28;2.60;;;12.90;1.00;;;;;;5035286;28;20389;-90
2023/10/04 08:12:30;;;;;;;4.32;2.53;;;13.20;1.00;;;;;;5035288;28;20922;-90
2023/10/04 08:15:00;;;;;;;4.43;2.67;;;13.30;1.00;;;;;;5053142;28;20451;-89
2023/10/04 08:17:26;;;;;;;2.63;2.43;;;12.70;1.00;;;;;;5034273;28;20455;-90
2023/10/04 08:19:52;;;;;;;4.53;2.33;;;12.40;1.00;;;;;;5024855;28;20488;-89
2023/10/04 08:22:17;;;;;;;3.10;2.30;;;13.40;1.00;;;;;;5036490;28;20417;-90
2023/10/04 08:24:46;;;;;;;4.83;2.50;;;15.40;1.00;;;;;;5046301;28;20393;-89
2023/10/04 08:27:12;;;;;;;3.50;2.50;;;12.50;1.00;;;;;;5052978;28;20439;-89
2023/10/04 08:29:37;;;;;;;2.50;2.10;;;13.10;1.00;;;;;;5048323;28;20386;-90
2023/10/04 08:32:03;;;;;;;3.35;2.40;;;13.00;1.00;;;;;;5037933;28;20386;-89
2023/10/04 08:34:29;;;;;;;3.70;2.50;;;13.90;1.00;;;;;;5017811;28;20476;-90
2023/10/04 08:36:56;;;;;;;3.60;2.20;;;13.90;1.00;;;;;;5020968;28;20385;-90
2023/10/04 08:39:22;;;;;;;4.13;2.20;;;12.90;1.00;;;;;;5042235;28;20397;-89
2023/10/04 08:41:48;;;;;;;3.33;2.80;;;14.20;1.00;;;;;;5043785;28;20382;-90
2023/10/04 08:44:14;;;;;;;3.50;2.70;;;13.80;1.00;;;;;;5047350;28;20436;-89
2023/10/04 08:46:43;;;;;;;4.70;2.85;;;14.30;1.00;;;;;;5036202;28;20899;-89
2023/10/04 08:49:10;;;;;;;5.10;3.85;;;14.30;1.00;;;;;;5015446;28;20409;-88
2023/10/04 08:51:44;;;;;;;5.72;4.25;;;14.40;1.00;;;;;;5016434;28;20418;-87
2023/10/04 08:54:13;;;;;;;5.20;3.90;;;14.70;1.00;;;;;;5033562;28;20388;-89
2023/10/04 08:56:48;;;;;;;3.70;3.28;;;15.40;1.00;;;;;;5027481;28;20430;-89
2023/10/04 08:59:17;;;;;;;5.00;4.50;;;14.40;1.00;;;;;;5026059;28;20387;-88
2023/10/04 09:01:46;;;;;;;4.10;3.80;;;14.20;1.00;;;;;;5037598;28;20400;-88
2023/10/04 09:04:13;;;;;;;4.28;3.30;;;14.90;1.00;;;;;;5036455;28;20468;-89
2023/10/04 09:06:42;;;;;;;4.20;3.80;;;14.70;1.00;;;;;;5054063;28;20820;-89
2023/10/04 09:09:11;;;;;;;6.90;3.50;;;14.70;1.00;;;;;;5035991;28;20463;-89
2023/10/04 09:11:37;;;;;;;4.50;3.53;;;16.80;1.00;;;;;;5038217;28;20381;-87
2023/10/04 09:14:03;;;;;;;4.50;3.40;;;14.30;1.00;;;;;;5036362;28;20485;-89
2023/10/04 09:16:29;;;;;;;5.33;3.60;;;14.90;1.00;;;;;;5052495;28;20457;-89
2023/10/04 09:19:18;;;;;;;4.20;3.40;;;14.90;1.00;;;;;;5037217;28;20385;-87
2023/10/04 09:21:45;;;;;;;3.70;3.30;;;14.70;1.00;;;;;;5017248;28;20391;-89
2023/10/04 09:24:12;;;;;;;3.72;3.20;;;14.70;1.00;;;;;;5016227;28;20775;-89
2023/10/04 09:26:58;;;;;;;6.05;3.03;;;15.00;1.00;;;;;;5015638;28;20462;-90
2023/10/04 09:29:38;;;;;;;4.68;2.65;;;16.90;1.00;;;;;;5014642;28;20887;-90
2023/10/04 09:32:05;;;;;;;3.60;3.00;;;16.80;1.00;;;;;;5028454;28;20463;-90
2023/10/04 09:34:33;;;;;;;4.23;3.10;;;15.20;1.00;;;;;;5034979;28;20405;-90
2023/10/04 09:36:58;;;;;;;5.13;3.20;;;18.00;1.00;;;;;;5035054;28;20514;-89
2023/10/04 09:39:27;;;;;;;4.60;2.70;;;15.80;1.00;;;;;;5078893;22;20466;-88
2023/10/04 09:41:55;;;;;;;5.05;2.58;;;15.30;1.00;;;;;;5073787;28;20396;-87
2023/10/04 09:44:29;;;;;;;3.65;2.40;;;16.00;1.00;;;;;;5073968;28;20486;-86
2023/10/04 09:47:02;;;;;;;4.10;2.60;;;15.10;1.00;;;;;;5072403;28;20388;-89
2023/10/04 09:49:33;;;;;;;3.75;2.30;;;16.30;1.00;;;;;;5068924;28;20597;-89
2023/10/04 09:52:00;;;;;;;3.30;1.90;;;16.30;1.00;;;;;;5053086;28;20389;-89
2023/10/04 09:54:30;;;;;;;4.65;2.33;;;15.40;1.00;;;;;;5053441;28;20396;-89
2023/10/04 09:56:56;;;;;;;3.80;2.20;;;15.40;1.00;;;;;;5054083;28;20393;-89
2023/10/04 09:59:24;;;;;;;3.22;2.15;;;15.70;1.00;;;;;;5053830;28;20911;-89
2023/10/04 10:01:56;;;;;;;3.30;2.10;;;15.70;1.00;;;;;;5056144;28;20369;-88
2023/10/04 10:04:25;;;;;;;5.00;2.40;;;15.70;1.00;;;;;;5053211;28;20411;-89
2023/10/04 10:07:15;;;;;;;4.25;2.60;;;18.50;1.00;;;;;;5061534;28;20388;-89
2023/10/04 10:10:12;;;;;;;3.70;2.20;;;17.40;1.00;;;;;;5074656;28;20930;-89
2023/10/04 10:12:39;;;;;;;9.75;2.50;;;16.30;1.00;;;;;;5033894;28;20390;-89
2023/10/04 10:15:31;;;;;;;4.30;2.30;;;16.10;1.00;;;;;;5040331;28;20394;-88
2023/10/04 10:17:57;;;;;;;4.30;2.50;;;16.20;1.00;;;;;;5025315;28;20392;-89
2023/10/04 10:20:23;;;;;;;4.35;2.20;;;16.40;1.00;;;;;;5049272;28;20407;-88
2023/10/04 10:22:57;;;;;;;4.07;2.20;;;18.90;1.00;;;;;;5073286;28;20433;-90
2023/10/04 10:25:25;;;;;;;3.28;2.00;;;16.50;1.00;;;;;;5074165;28;20416;-89
2023/10/04 10:27:55;;;;;;;4.97;2.60;;;19.80;1.00;;;;;;5072948;28;20914;-87
2023/10/04 10:30:21;;;;;;;4.65;2.40;;;17.10;1.00;;;;;;5076555;28;20398;-87
2023/10/04 10:32:55;;;;;;;4.30;2.70;;;16.60;1.00;;;;;;5077657;28;20384;-89
2023/10/04 10:35:51;;;;;;;4.20;2.00;;;16.70;1.00;;;;;;5076845;28;20446;-88
2023/10/04 10:38:39;;;;;;;3.30;2.22;;;16.50;1.00;;;;;;5060125;28;20404;-88
2023/10/04 10:41:05;;;;;;;5.53;2.10;;;17.50;1.00;;;;;;5076574;28;20809;-91
2023/10/04 10:43:31;;;;;;;6.18;2.22;;;17.60;1.00;;;;;;5080034;28;20411;-88
2023/10/04 10:45:57;;;;;;;3.00;2.00;;;17.00;1.00;;;;;;5076236;28;20518;-87
2023/10/04 10:48:33;;;;;;;3.75;2.55;;;19.80;1.00;;;;;;5086380;28;20389;-88
2023/10/04 10:51:00;;;;;;;3.58;2.20;;;17.20;1.00;;;;;;5081848;28;20959;-88
2023/10/04 10:53:26;;;;;;;4.85;2.17;;;17.30;1.00;;;;;;5079492;28;20449;-89
2023/10/04 10:55:51;;;;;;;3.05;2.05;;;18.90;1.00;;;;;;5085814;28;20391;-89
2023/10/04 10:58:20;;;;;;;2.83;2.20;;;17.40;1.00;;;;;;5084093;28;20400;-89
2023/10/04 11:00:46;;;;;;;5.38;2.35;;;17.70;1.00;;;;;;5081418;28;20421;-89
2023/10/04 11:03:13;;;;;;;3.70;2.20;;;18.20;1.00;;;;;;5080598;28;20407;-90
2023/10/04 11:05:40;;;;;;;4.40;1.88;;;20.90;1.00;;;;;;5076746;28;20452;-88
2023/10/04 11:08:07;;;;;;;3.33;1.90;;;18.30;1.00;;;;;;5070309;28;20393;-89
2023/10/04 11:10:40;;;;;;;3.60;2.50;;;18.40;1.00;;;;;;5067295;28;20386;-87
2023/10/04 11:13:14;;;;;;;3.17;2.10;;;18.70;1.00;;;;;;5071883;28;20405;-90
2023/10/04 11:15:41;;;;;;;3.08;1.90;;;19.00;1.00;;;;;;5065019;28;20895;-88
2023/10/04 11:18:07;;;;;;;3.55;2.00;;;20.10;1.00;;;;;;5080283;28;20392;-87
2023/10/04 11:20:36;;;;;;;2.73;2.10;;;21.30;1.00;;;;;;5063323;28;20377;-90
2023/10/04 11:23:02;;;;;;;3.50;2.20;;;20.40;1.00;;;;;;5066150;28;20409;-88
2023/10/04 11:25:29;;;;;;;4.43;2.00;;;20.60;1.00;;;;;;5083187;28;20449;-88
2023/10/04 11:27:55;;;;;;;4.75;1.90;;;21.00;1.00;;;;;;5095128;28;20410;-92
2023/10/04 11:30:26;;;;;;;2.70;1.83;;;21.30;1.00;;;;;;5093947;28;20404;-87
2023/10/04 11:32:52;;;;;;;2.50;1.88;;;23.10;1.00;;;;;;5096816;28;20414;-87
2023/10/04 11:35:21;;;;;;;2.42;1.70;;;20.70;1.00;;;;;;5092968;28;20378;-89
2023/10/04 11:37:50;;;;;;;2.85;2.20;;;21.20;1.00;;;;;;5095385;28;20376;-90
2023/10/04 11:40:24;;;;;;;3.40;1.80;;;21.10;1.00;;;;;;5096842;28;20461;-90
2023/10/04 11:42:59;;;;;;;2.95;1.60;;;21.60;1.00;;;;;;5092732;28;20399;-87
2023/10/04 11:45:26;;;;;;;3.40;1.80;;;21.60;1.00;;;;;;5095407;28;20463;-89
2023/10/04 11:48:01;;;;;;;2.67;2.10;;;19.00;1.00;;;;;;5096472;28;20398;-88
2023/10/04 11:50:45;;;;;;;3.45;1.80;;;20.00;1.00;;;;;;5095005;28;20409;-91
2023/10/04 11:53:15;;;;;;;2.80;2.17;;;19.30;1.00;;;;;;5095276;28;20391;-88
2023/10/04 11:55:41;;;;;;;2.72;1.70;;;20.10;1.00;;;;;;5061078;22;20436;-88
2023/10/04 11:58:07;;;;;;;2.53;1.70;;;20.90;1.00;;;;;;5039111;28;20470;-88
2023/10/04 12:00:33;;;;;;;3.92;1.80;;;18.80;1.00;;;;;;5039796;28;20402;-88
2023/10/04 12:03:03;;;;;;;2.50;1.88;;;20.60;1.00;;;;;;5035130;28;20443;-89
2023/10/04 12:05:29;;;;;;;2.80;1.85;;;20.20;1.00;;;;;;5029094;28;20435;-88
2023/10/04 12:07:58;;;;;;;3.80;1.60;;;19.40;1.00;;;;;;5020253;28;20436;-89
2023/10/04 12:10:25;;;;;;;3.40;2.00;;;19.50;1.00;;;;;;5020609;28;20380;-89
2023/10/04 12:12:52;;;;;;;2.85;1.80;;;20.30;1.00;;;;;;5019873;28;20393;-89
2023/10/04 12:15:31;;;;;;;2.70;1.80;;;20.20;1.00;;;;;;5018751;28;20409;-89
2023/10/04 12:17:56;;;;;;;2.75;1.83;;;20.40;1.00;;;;;;5034289;28;20413;-89
2023/10/04 12:20:24;;;;;;;2.53;1.80;;;20.70;1.00;;;;;;5020202;28;20402;-90
2023/10/04 12:22:50;;;;;;;2.50;1.70;;;21.30;1.00;;;;;;5047643;28;20398;-89
2023/10/04 12:25:15;;;;;;;3.80;1.95;;;21.40;1.00;;;;;;5038652;28;20863;-90
2023/10/04 12:27:41;;;;;;;3.97;1.80;;;20.20;1.00;;;;;;5035143;28;20470;-90
2023/10/04 12:30:17;;;;;;;3.83;1.92;;;20.00;1.00;;;;;;5035357;28;20443;-90
2023/10/04 12:32:43;;;;;;;2.03;1.63;;;20.60;1.00;;;;;;5018379;28;20406;-90
2023/10/04 12:35:13;;;;;;;2.40;1.80;;;20.40;1.00;;;;;;5036108;28;20387;-90
2023/10/04 12:37:38;;;;;;;2.63;1.58;;;20.10;1.00;;;;;;5010276;28;20428;-88
2023/10/04 12:40:15;;;;;;;2.25;1.77;;;20.30;1.00;;;;;;5014712;28;20408;-89
2023/10/04 12:42:41;;;;;;;3.20;1.50;;;20.00;1.00;;;;;;5015672;28;20538;-88
2023/10/04 12:45:10;;;;;;;2.60;1.92;;;19.60;1.00;;;;;;4997707;28;20427;-90
2023/10/04 12:47:36;;;;;;;2.67;1.60;;;19.50;1.00;;;;;;4996253;28;20389;-87
2023/10/04 12:50:02;;;;;;;2.20;1.83;;;19.70;1.00;;;;;;5014159;28;20756;-89
2023/10/04 12:52:30;;;;;;;2.28;1.40;;;19.70;1.00;;;;;;5018462;28;20381;-87
2023/10/04 12:54:57;;;;;;;3.90;1.92;;;19.80;1.00;;;;;;5044714;28;20409;-90
2023/10/04 12:57:22;;;;;;;4.80;1.60;;;21.30;1.00;;;;;;5040505;28;20391;-89
2023/10/04 12:59:54;;;;;;;4.07;1.87;;;19.80;1.00;;;;;;5039231;28;20437;-90
2023/10/04 13:02:22;;;;;;;2.78;2.10;;;19.40;1.00;;;;;;5036963;28;20382;-90